createdAt,value
2022-12-08T00:01:03.830Z,98064.66
2022-12-08T00:03:30.685Z,98049.81
2022-12-08T00:06:12.720Z,98051.44
2022-12-08T00:08:54.768Z,98039.69
2022-12-08T00:11:21.469Z,98047.16
2022-12-08T00:13:48.122Z,98044.38
2022-12-08T00:16:14.905Z,98040.44
2022-12-08T00:18:41.637Z,98037.81
2022-12-08T00:21:08.321Z,98040.25
2022-12-08T00:23:35.009Z,98043.66
2022-12-08T00:26:03.890Z,98042.22
2022-12-08T00:28:31.763Z,98033.06
2022-12-08T00:30:58.413Z,98031.06
2022-12-08T00:33:25.444Z,98024.69
2022-12-08T00:35:52.511Z,98030.44
2022-12-08T00:38:19.182Z,98031.31
2022-12-08T00:40:46.968Z,98026.72
2022-12-08T00:43:14.284Z,98029.81
2022-12-08T00:45:41.063Z,98041.13
2022-12-08T00:48:08.142Z,98036.31
2022-12-08T00:50:34.902Z,98033.72
2022-12-08T00:53:01.578Z,98037.88
2022-12-08T00:55:28.271Z,98033.28
2022-12-08T00:57:54.985Z,98039.56
2022-12-08T01:00:21.802Z,98038.22
2022-12-08T01:02:48.599Z,98035.28
2022-12-08T01:05:15.449Z,98035.91
2022-12-08T01:07:42.258Z,98029.88
2022-12-08T01:10:09.425Z,98029.69
2022-12-08T01:12:36.146Z,98036.06
2022-12-08T01:15:03.125Z,98037.88
2022-12-08T01:17:29.812Z,98031.97
2022-12-08T01:19:56.533Z,98023.16
2022-12-08T01:22:23.133Z,98030.34
2022-12-08T01:24:49.757Z,98030.03
2022-12-08T01:27:16.728Z,98023.91
2022-12-08T01:29:43.387Z,98024.41
2022-12-08T01:32:10.051Z,98024.78
2022-12-08T01:34:36.738Z,98025.81
2022-12-08T01:37:03.471Z,98026.59
2022-12-08T01:39:30.725Z,98026.97
2022-12-08T01:41:57.390Z,98020.28
2022-12-08T01:44:24.035Z,98013.19
2022-12-08T01:46:53.074Z,98006.81
2022-12-08T01:49:25.712Z,98012.22
2022-12-08T01:52:02.965Z,98015.00
2022-12-08T01:54:34.640Z,98002.16
2022-12-08T01:57:08.221Z,98004.22
2022-12-08T01:59:39.673Z,97998.16
2022-12-08T02:02:06.459Z,97995.38
2022-12-08T02:04:33.226Z,97998.31
2022-12-08T02:07:04.930Z,98003.81
2022-12-08T02:09:36.146Z,97996.97
2022-12-08T02:12:03.059Z,97988.00
2022-12-08T02:14:29.875Z,97983.75
2022-12-08T02:17:10.914Z,97993.22
2022-12-08T02:20:09.572Z,97988.47
2022-12-08T02:22:42.930Z,97986.53
2022-12-08T02:25:16.503Z,97980.50
2022-12-08T02:27:49.327Z,97982.28
2022-12-08T02:30:22.532Z,97986.06
2022-12-08T02:33:04.417Z,97977.56
2022-12-08T02:35:46.336Z,97976.94
2022-12-08T02:38:43.482Z,97974.53
2022-12-08T02:41:26.360Z,97971.22
2022-12-08T02:44:01.174Z,97970.06
2022-12-08T02:46:33.258Z,97963.09
2022-12-08T02:49:00.737Z,97960.63
2022-12-08T02:51:27.482Z,97961.78
2022-12-08T02:53:58.586Z,97960.63
2022-12-08T02:56:37.547Z,97962.56
2022-12-08T02:59:26.010Z,97960.78
2022-12-08T03:02:13.632Z,97954.53
2022-12-08T03:05:11.096Z,97955.59
2022-12-08T03:07:48.917Z,97951.66
2022-12-08T03:10:23.528Z,97950.69
2022-12-08T03:12:58.898Z,97948.06
2022-12-08T03:15:25.924Z,97952.03
2022-12-08T03:17:56.985Z,97944.53
2022-12-08T03:20:26.183Z,97949.44
2022-12-08T03:22:56.377Z,97946.97
2022-12-08T03:25:26.281Z,97945.84
2022-12-08T03:27:53.887Z,97932.66
2022-12-08T03:30:20.646Z,97929.41
2022-12-08T03:32:50.481Z,97934.13
2022-12-08T03:35:21.954Z,97917.81
2022-12-08T03:37:48.619Z,97922.69
2022-12-08T03:40:20.163Z,97918.13
2022-12-08T03:42:46.950Z,97918.78
2022-12-08T03:45:13.646Z,97912.88
2022-12-08T03:47:40.296Z,97910.91
2022-12-08T03:50:07.561Z,97918.13
2022-12-08T03:52:34.227Z,97914.41
2022-12-08T03:55:00.859Z,97911.09
2022-12-08T03:57:27.510Z,97908.34
2022-12-08T03:59:54.124Z,97911.59
2022-12-08T04:02:20.845Z,97903.78
2022-12-08T04:04:47.728Z,97907.88
2022-12-08T04:07:14.415Z,97913.44
2022-12-08T04:09:42.783Z,97906.38
2022-12-08T04:12:09.724Z,97909.97
2022-12-08T04:14:36.595Z,97907.06
2022-12-08T04:17:03.301Z,97910.00
2022-12-08T04:19:32.081Z,97906.06
2022-12-08T04:21:58.797Z,97909.66
2022-12-08T04:24:25.490Z,97910.84
2022-12-08T04:26:52.238Z,97907.94
2022-12-08T04:29:19.019Z,97907.28
2022-12-08T04:31:45.787Z,97900.00
2022-12-08T04:34:12.552Z,97903.22
2022-12-08T04:36:39.188Z,97903.56
2022-12-08T04:39:06.288Z,97906.50
2022-12-08T04:41:33.231Z,97903.38
2022-12-08T04:43:59.896Z,97901.13
2022-12-08T04:46:26.573Z,97895.09
2022-12-08T04:48:53.221Z,97899.75
2022-12-08T04:51:20.754Z,97900.84
2022-12-08T04:53:47.827Z,97900.38
2022-12-08T04:56:17.783Z,97901.34
2022-12-08T04:58:45.291Z,97907.41
2022-12-08T05:01:12.200Z,97902.53
2022-12-08T05:03:39.266Z,97903.66
2022-12-08T05:06:06.239Z,97893.69
2022-12-08T05:08:33.403Z,97898.91
2022-12-08T05:11:10.092Z,97894.69
2022-12-08T05:13:36.820Z,97889.47
2022-12-08T05:16:09.466Z,97884.56
2022-12-08T05:18:37.425Z,97886.81
2022-12-08T05:21:04.946Z,97890.69
2022-12-08T05:23:32.023Z,97883.03
2022-12-08T05:25:58.836Z,97885.66
2022-12-08T05:28:41.216Z,97886.00
2022-12-08T05:31:09.226Z,97883.09
2022-12-08T05:33:35.981Z,97880.31
2022-12-08T05:36:02.682Z,97883.44
2022-12-08T05:38:29.564Z,97879.41
2022-12-08T05:40:56.253Z,97880.53
2022-12-08T05:43:22.905Z,97884.47
2022-12-08T05:45:50.163Z,97875.09
2022-12-08T05:48:16.918Z,97877.00
2022-12-08T05:50:51.986Z,97879.50
2022-12-08T05:53:20.373Z,97878.19
2022-12-08T05:55:47.519Z,97871.81
2022-12-08T05:58:17.496Z,97879.47
2022-12-08T06:00:45.324Z,97880.31
2022-12-08T06:03:14.647Z,97879.75
2022-12-08T06:05:43.026Z,97879.25
2022-12-08T06:08:10.251Z,97882.34
2022-12-08T06:10:39.965Z,97873.69
2022-12-08T06:13:06.695Z,97883.13
2022-12-08T06:15:35.689Z,97880.53
2022-12-08T06:18:02.381Z,97890.47
2022-12-08T06:20:29.063Z,97885.78
2022-12-08T06:22:56.482Z,97887.91
2022-12-08T06:25:23.517Z,97877.00
2022-12-08T06:27:50.462Z,97884.94
2022-12-08T06:30:17.831Z,97879.75
2022-12-08T06:32:44.753Z,97881.75
2022-12-08T06:35:11.436Z,97889.44
2022-12-08T06:37:38.142Z,97879.03
2022-12-08T06:40:05.572Z,97881.09
2022-12-08T06:42:43.655Z,97878.31
2022-12-08T06:45:16.193Z,97876.72
2022-12-08T06:47:43.273Z,97881.13
2022-12-08T06:50:13.528Z,97873.50
2022-12-08T06:53:00.790Z,97882.91
2022-12-08T06:56:01.303Z,97887.97
2022-12-08T06:58:55.275Z,97890.28
2022-12-08T07:01:24.579Z,97888.94
2022-12-08T07:03:51.358Z,97889.44
2022-12-08T07:06:24.365Z,97887.47
2022-12-08T07:08:51.801Z,97885.50
2022-12-08T07:11:21.866Z,97883.56
2022-12-08T07:13:50.285Z,97881.09
2022-12-08T07:16:16.988Z,97883.53
2022-12-08T07:18:44.238Z,97889.09
2022-12-08T07:21:14.869Z,97884.88
2022-12-08T07:23:42.579Z,97878.69
2022-12-08T07:26:12.030Z,97871.03
2022-12-08T07:28:40.525Z,97881.75
2022-12-08T07:31:08.462Z,97873.59
2022-12-08T07:33:36.178Z,97886.94
2022-12-08T07:36:06.521Z,97883.50
2022-12-08T07:38:33.682Z,97879.56
2022-12-08T07:41:00.764Z,97875.53
2022-12-08T07:43:27.459Z,97877.63
2022-12-08T07:45:54.287Z,97878.50
2022-12-08T07:48:20.977Z,97881.28
2022-12-08T07:50:47.934Z,97881.94
2022-12-08T07:53:15.165Z,97881.25
2022-12-08T07:55:43.670Z,97887.41
2022-12-08T07:58:11.578Z,97879.41
2022-12-08T08:00:38.631Z,97883.50
2022-12-08T08:03:06.299Z,97881.72
2022-12-08T08:05:33.123Z,97882.53
2022-12-08T08:07:59.795Z,97878.56
2022-12-08T08:10:26.766Z,97874.44
2022-12-08T08:12:53.530Z,97880.06
2022-12-08T08:15:21.318Z,97876.91
2022-12-08T08:17:51.554Z,97876.16
2022-12-08T08:20:19.324Z,97879.63
2022-12-08T08:22:47.893Z,97869.97
2022-12-08T08:25:15.647Z,97877.03
2022-12-08T08:27:42.705Z,97876.59
2022-12-08T08:30:16.598Z,97877.81
2022-12-08T08:32:46.811Z,97871.44
2022-12-08T08:35:13.518Z,97879.81
2022-12-08T08:37:43.149Z,97871.63
2022-12-08T08:40:13.855Z,97874.84
2022-12-08T08:42:40.730Z,97873.88
2022-12-08T08:45:07.922Z,97877.03
2022-12-08T08:47:34.607Z,97880.63
2022-12-08T08:50:01.228Z,97884.03
2022-12-08T08:52:27.938Z,97883.69
2022-12-08T08:54:54.614Z,97887.28
2022-12-08T08:57:25.710Z,97887.56
2022-12-08T08:59:53.494Z,97887.53
2022-12-08T09:02:21.284Z,97885.63
2022-12-08T09:04:48.435Z,97888.97
2022-12-08T09:07:16.107Z,97892.38
2022-12-08T09:09:43.037Z,97891.06
2022-12-08T09:12:10.509Z,97889.47
2022-12-08T09:14:37.346Z,97895.69
2022-12-08T09:17:04.551Z,97883.97
2022-12-08T09:19:31.416Z,97887.69
2022-12-08T09:21:58.107Z,97874.63
2022-12-08T09:24:24.783Z,97880.22
2022-12-08T09:26:51.525Z,97884.66
2022-12-08T09:29:18.262Z,97877.66
2022-12-08T09:31:45.084Z,97869.25
2022-12-08T09:34:12.412Z,97862.75
2022-12-08T09:36:39.827Z,97857.19
2022-12-08T09:39:06.902Z,97859.56
2022-12-08T09:41:40.635Z,97860.69
2022-12-08T09:44:39.267Z,97860.06
2022-12-08T09:47:13.490Z,97853.28
2022-12-08T09:49:45.858Z,97845.28
2022-12-08T09:52:23.103Z,97839.13
2022-12-08T09:54:49.934Z,97832.16
2022-12-08T09:57:20.848Z,97828.50
2022-12-08T09:59:54.867Z,97832.34
2022-12-08T10:02:24.512Z,97833.22
2022-12-08T10:04:51.482Z,97823.31
2022-12-08T10:07:27.550Z,97824.50
2022-12-08T10:10:18.779Z,97820.22
2022-12-08T10:12:46.417Z,97816.69
2022-12-08T10:15:42.416Z,97819.16
2022-12-08T10:18:29.059Z,97814.31
2022-12-08T10:21:05.365Z,97806.91
2022-12-08T10:23:34.997Z,97812.13
2022-12-08T10:26:07.048Z,97804.63
2022-12-08T10:28:37.633Z,97814.38
2022-12-08T10:31:15.655Z,97803.09
2022-12-08T10:33:43.712Z,97806.94
2022-12-08T10:36:10.717Z,97799.81
2022-12-08T10:38:39.133Z,97791.03
2022-12-08T10:41:14.620Z,97791.78
2022-12-08T10:43:46.416Z,97787.16
2022-12-08T10:46:18.496Z,97783.81
2022-12-08T10:48:56.242Z,97776.13
2022-12-08T10:51:27.385Z,97772.28
2022-12-08T10:53:54.180Z,97771.00
2022-12-08T10:56:29.177Z,97761.16
2022-12-08T10:59:14.921Z,97764.72
2022-12-08T11:01:45.290Z,97755.75
2022-12-08T11:04:17.477Z,97748.06
2022-12-08T11:06:45.422Z,97745.72
2022-12-08T11:09:31.188Z,97743.97
2022-12-08T11:12:07.942Z,97740.81
2022-12-08T11:14:55.074Z,97740.09
2022-12-08T11:17:21.749Z,97733.00
2022-12-08T11:19:57.201Z,97725.47
2022-12-08T11:22:43.835Z,97719.38
2022-12-08T11:25:15.972Z,97713.16
2022-12-08T11:27:45.742Z,97725.09
2022-12-08T11:30:15.690Z,97722.81
2022-12-08T11:32:44.931Z,97721.94
2022-12-08T11:35:21.535Z,97714.81
2022-12-08T11:37:48.577Z,97709.81
2022-12-08T11:40:34.377Z,97708.81
2022-12-08T11:43:19.527Z,97705.88
2022-12-08T11:45:49.448Z,97702.00
2022-12-08T11:48:23.064Z,97698.41
2022-12-08T11:50:56.296Z,97697.72
2022-12-08T11:53:43.581Z,97696.09
2022-12-08T11:56:22.604Z,97706.41
2022-12-08T11:58:56.007Z,97687.03
2022-12-08T12:01:25.186Z,97687.84
2022-12-08T12:04:12.678Z,97688.16
2022-12-08T12:07:04.791Z,97681.00
2022-12-08T12:09:58.063Z,97676.22
2022-12-08T12:12:52.190Z,97668.78
2022-12-08T12:15:35.218Z,97666.94
2022-12-08T12:18:16.549Z,97669.41
2022-12-08T12:21:01.393Z,97665.22
2022-12-08T12:23:29.055Z,97662.22
2022-12-08T12:26:01.159Z,97656.16
2022-12-08T12:28:34.257Z,97655.06
2022-12-08T12:31:07.157Z,97647.00
2022-12-08T12:33:35.459Z,97647.47
2022-12-08T12:36:05.405Z,97649.38
2022-12-08T12:38:54.945Z,97648.22
2022-12-08T12:41:28.643Z,97641.69
2022-12-08T12:44:24.092Z,97641.63
2022-12-08T12:46:50.716Z,97634.34
2022-12-08T12:49:49.693Z,97637.97
2022-12-08T12:52:16.304Z,97640.38
2022-12-08T12:55:03.392Z,97640.06
2022-12-08T12:57:39.680Z,97638.78
2022-12-08T13:00:09.713Z,97642.38
2022-12-08T13:02:36.564Z,97632.03
2022-12-08T13:05:16.797Z,97634.00
2022-12-08T13:08:03.348Z,97635.28
2022-12-08T13:10:40.612Z,97633.31
2022-12-08T13:13:08.357Z,97635.28
2022-12-08T13:15:38.641Z,97626.94
2022-12-08T13:18:07.711Z,97626.84
2022-12-08T13:20:42.369Z,97624.56
2022-12-08T13:23:25.220Z,97632.69
2022-12-08T13:25:53.784Z,97629.06
2022-12-08T13:28:27.449Z,97626.03
2022-12-08T13:31:01.915Z,97627.41
2022-12-08T13:33:32.857Z,97621.56
2022-12-08T13:36:23.730Z,97618.00
2022-12-08T13:38:56.018Z,97618.22
2022-12-08T13:41:29.614Z,97613.41
2022-12-08T13:44:39.161Z,97624.91
2022-12-08T13:58:31.913Z,97610.00
2022-12-08T14:01:22.681Z,97614.97
2022-12-08T14:04:20.338Z,97615.81
2022-12-08T14:06:38.205Z,97610.66
2022-12-08T14:09:11.552Z,97611.31
2022-12-08T14:11:41.433Z,97617.97
2022-12-08T14:14:27.200Z,97613.50
2022-12-08T14:17:06.815Z,97610.78
2022-12-08T14:19:35.262Z,97607.00
2022-12-08T14:22:13.051Z,97617.28
2022-12-08T14:24:40.737Z,97614.06
2022-12-08T14:27:12.798Z,97631.59
2022-12-08T14:29:50.509Z,97620.91
2022-12-08T14:32:32.755Z,97618.91
2022-12-08T14:35:11.422Z,97622.38
2022-12-08T14:37:42.298Z,97622.47
2022-12-08T14:40:25.667Z,97624.09
2022-12-08T14:42:54.246Z,97623.44
2022-12-08T14:45:21.545Z,97615.47
2022-12-08T14:47:52.367Z,97614.41
2022-12-08T14:50:49.575Z,97612.69
2022-12-08T14:53:18.136Z,97605.84
2022-12-08T14:55:47.803Z,97623.31
2022-12-08T14:58:22.187Z,97627.69
2022-12-08T15:00:52.201Z,97616.53
2022-12-08T15:03:22.207Z,97613.25
2022-12-08T15:05:52.857Z,97622.81
2022-12-08T15:08:19.591Z,97621.88
2022-12-08T15:10:48.277Z,97620.75
2022-12-08T15:13:16.444Z,97626.84
2022-12-08T15:15:58.383Z,97622.25
2022-12-08T15:18:40.768Z,97617.84
2022-12-08T15:21:09.987Z,97624.31
2022-12-08T15:23:45.032Z,97620.69
2022-12-08T15:26:22.681Z,97619.09
2022-12-08T15:28:49.632Z,97622.94
2022-12-08T15:31:18.476Z,97626.94
2022-12-08T15:33:45.539Z,97624.09
2022-12-08T15:36:12.264Z,97630.94
2022-12-08T15:38:39.409Z,97621.47
2022-12-08T15:41:10.143Z,97619.81
2022-12-08T15:43:39.882Z,97623.06
2022-12-08T15:46:06.659Z,97622.84
2022-12-08T15:48:33.337Z,97630.25
2022-12-08T15:51:00.222Z,97627.38
2022-12-08T15:53:26.919Z,97631.19
2022-12-08T15:58:57.891Z,97624.50
2022-12-08T16:01:26.631Z,97623.66
2022-12-08T16:07:19.792Z,97632.88
2022-12-08T16:09:36.621Z,97633.00
2022-12-08T16:12:18.924Z,97638.03
2022-12-08T16:17:33.660Z,97638.72
2022-12-08T16:20:01.136Z,97644.41
2022-12-08T16:25:20.328Z,97647.22
2022-12-08T16:30:36.802Z,97630.06
2022-12-08T16:33:04.133Z,97627.47
2022-12-08T16:35:31.163Z,97633.81
2022-12-08T16:37:58.323Z,97637.00
2022-12-08T16:40:25.047Z,97643.59
2022-12-08T16:42:51.761Z,97640.78
2022-12-08T16:45:21.627Z,97643.00
2022-12-08T16:47:49.458Z,97634.28
2022-12-08T16:50:20.272Z,97638.88
2022-12-08T16:52:48.888Z,97634.22
2022-12-08T16:55:19.334Z,97635.97
2022-12-08T16:57:47.339Z,97627.25
2022-12-08T17:00:18.736Z,97632.00
2022-12-08T17:02:45.617Z,97633.56
2022-12-08T17:05:15.305Z,97630.69
2022-12-08T17:07:43.483Z,97632.28
2022-12-08T17:10:12.724Z,97627.88
2022-12-08T17:12:39.524Z,97627.88
2022-12-08T17:15:08.772Z,97625.63
2022-12-08T17:17:36.330Z,97625.19
2022-12-08T17:20:05.820Z,97619.28
2022-12-08T17:22:35.012Z,97614.97
2022-12-08T17:25:02.793Z,97614.81
2022-12-08T17:27:29.708Z,97626.31
2022-12-08T17:29:56.503Z,97621.34
2022-12-08T17:32:23.703Z,97615.97
2022-12-08T17:34:50.622Z,97613.97
2022-12-08T17:37:17.926Z,97613.00
2022-12-08T17:39:44.721Z,97614.81
2022-12-08T17:42:11.542Z,97611.38
2022-12-08T17:44:38.231Z,97614.34
2022-12-08T17:47:05.563Z,97624.25
2022-12-08T17:49:34.031Z,97620.19
2022-12-08T17:52:04.770Z,97625.13
2022-12-08T17:54:31.527Z,97627.06
2022-12-08T17:56:59.096Z,97630.25
2022-12-08T17:59:28.082Z,97630.53
2022-12-08T18:01:55.792Z,97629.53
2022-12-08T18:04:23.514Z,97629.53
2022-12-08T18:06:50.400Z,97623.41
2022-12-08T18:09:17.365Z,97619.34
2022-12-08T18:11:44.615Z,97618.75
2022-12-08T18:14:12.410Z,97618.97
2022-12-08T18:16:42.417Z,97619.88
2022-12-08T18:19:10.839Z,97620.50
2022-12-08T18:21:38.015Z,97617.22
2022-12-08T18:24:05.517Z,97615.75
2022-12-08T18:26:32.886Z,97614.84
2022-12-08T18:29:00.080Z,97614.03
2022-12-08T18:31:27.123Z,97607.31
2022-12-08T18:33:54.102Z,97613.16
2022-12-08T18:36:24.544Z,97601.47
2022-12-08T18:38:52.090Z,97606.69
2022-12-08T18:41:23.469Z,97609.06
2022-12-08T18:43:50.642Z,97603.94
2022-12-08T18:46:17.444Z,97595.84
2022-12-08T18:48:49.236Z,97602.56
2022-12-08T18:51:19.480Z,97600.06
2022-12-08T18:53:46.567Z,97603.53
2022-12-08T18:56:29.885Z,97601.66
2022-12-08T18:59:03.839Z,97605.63
2022-12-08T19:01:32.764Z,97598.88
2022-12-08T19:06:48.336Z,97599.66
2022-12-08T19:09:15.890Z,97599.91
2022-12-08T19:11:42.950Z,97595.00
2022-12-08T19:14:10.683Z,97588.97
2022-12-08T19:16:37.722Z,97583.59
2022-12-08T19:19:05.031Z,97578.22
2022-12-08T19:21:32.585Z,97584.22
2022-12-08T19:24:00.022Z,97580.03
2022-12-08T19:26:28.611Z,97576.47
2022-12-08T19:28:56.205Z,97576.09
2022-12-08T19:31:22.982Z,97574.34
2022-12-08T19:33:50.098Z,97583.72
2022-12-08T19:36:20.219Z,97578.34
2022-12-08T19:39:03.021Z,97588.56
2022-12-08T19:41:45.555Z,97591.31
2022-12-08T19:44:38.363Z,97600.03
2022-12-08T19:47:05.566Z,97603.66
2022-12-08T19:49:32.786Z,97605.59
2022-12-08T19:51:59.979Z,97602.00
2022-12-08T19:54:28.546Z,97601.81
2022-12-08T19:56:55.295Z,97609.81
2022-12-08T19:59:22.764Z,97614.94
2022-12-08T20:01:50.096Z,97605.59
2022-12-08T20:04:17.894Z,97598.41
2022-12-08T20:06:45.604Z,97594.69
2022-12-08T20:09:13.806Z,97592.59
2022-12-08T20:11:41.368Z,97590.22
2022-12-08T20:14:08.102Z,97598.94
2022-12-08T20:16:35.429Z,97590.19
2022-12-08T20:19:02.650Z,97591.59
2022-12-08T20:21:29.758Z,97587.94
2022-12-08T20:23:56.592Z,97590.19
2022-12-08T20:26:23.846Z,97594.16
2022-12-08T20:28:51.166Z,97603.41
2022-12-08T20:31:21.639Z,97595.44
2022-12-08T20:33:48.672Z,97602.13
2022-12-08T20:36:18.767Z,97609.41
2022-12-08T20:38:46.792Z,97606.63
2022-12-08T20:41:16.117Z,97606.78
2022-12-08T20:43:45.735Z,97600.81
2022-12-08T20:46:14.886Z,97600.44
2022-12-08T20:48:43.570Z,97596.28
2022-12-08T20:51:15.605Z,97608.53
2022-12-08T20:53:42.775Z,97607.56
2022-12-08T20:56:15.697Z,97610.84
2022-12-08T20:58:42.886Z,97605.31
2022-12-08T21:01:12.388Z,97610.50
2022-12-08T21:03:39.760Z,97613.06
2022-12-08T21:06:07.482Z,97615.50
2022-12-08T21:08:35.126Z,97602.31
2022-12-08T21:11:02.309Z,97600.72
2022-12-08T21:13:29.148Z,97594.53
2022-12-08T21:15:56.220Z,97604.28
2022-12-08T21:18:23.631Z,97604.69
2022-12-08T21:20:51.582Z,97606.13
2022-12-08T21:23:18.866Z,97608.56
2022-12-08T21:25:47.371Z,97616.88
2022-12-08T21:28:14.203Z,97620.47
2022-12-08T21:30:41.815Z,97619.03
2022-12-08T21:33:09.243Z,97607.78
2022-12-08T21:35:36.061Z,97608.47
2022-12-08T21:38:06.108Z,97606.66
2022-12-08T21:40:35.211Z,97597.88
2022-12-08T21:43:03.848Z,97588.91
2022-12-08T21:45:33.262Z,97590.72
2022-12-08T21:48:03.178Z,97599.84
2022-12-08T21:50:32.739Z,97604.25
2022-12-08T21:53:00.443Z,97606.72
2022-12-08T21:55:27.332Z,97603.16
2022-12-08T21:57:54.125Z,97617.78
2022-12-08T22:00:21.636Z,97611.56
2022-12-08T22:02:48.887Z,97610.63
2022-12-08T22:05:15.837Z,97611.28
2022-12-08T22:07:42.712Z,97611.59
2022-12-08T22:10:10.814Z,97597.78
2022-12-08T22:12:38.171Z,97593.88
2022-12-08T22:15:07.185Z,97597.59
2022-12-08T22:17:39.441Z,97597.44
2022-12-08T22:20:08.660Z,97597.03
2022-12-08T22:22:35.924Z,97600.59
2022-12-08T22:25:04.477Z,97609.19
2022-12-08T22:27:33.053Z,97609.03
2022-12-08T22:29:59.805Z,97598.50
2022-12-08T22:32:28.874Z,97597.03
2022-12-08T22:34:56.277Z,97602.34
2022-12-08T22:37:22.939Z,97605.59
2022-12-08T22:39:49.573Z,97606.06
2022-12-08T22:42:16.313Z,97605.91
2022-12-08T22:44:42.938Z,97601.34
2022-12-08T22:47:09.676Z,97593.75
2022-12-08T22:49:39.823Z,97589.34
2022-12-08T22:52:06.701Z,97576.53
2022-12-08T22:54:33.359Z,97580.94
2022-12-08T22:57:00.137Z,97593.44
2022-12-08T22:59:33.295Z,97585.06
2022-12-08T23:02:00.327Z,97581.13
2022-12-08T23:04:27.412Z,97581.78
2022-12-08T23:06:54.185Z,97589.91
2022-12-08T23:09:21.397Z,97584.72
2022-12-08T23:11:48.080Z,97585.50
2022-12-08T23:14:14.833Z,97586.81
2022-12-08T23:16:41.646Z,97595.28
2022-12-08T23:19:08.640Z,97588.63
2022-12-08T23:21:35.559Z,97573.53
2022-12-08T23:24:02.574Z,97570.59
2022-12-08T23:26:32.115Z,97565.41
2022-12-08T23:28:59.723Z,97560.88
2022-12-08T23:31:27.413Z,97556.81
2022-12-08T23:33:54.727Z,97559.41
2022-12-08T23:36:25.036Z,97549.84
2022-12-08T23:38:52.495Z,97556.19
2022-12-08T23:41:19.452Z,97546.28
2022-12-08T23:43:48.414Z,97546.00
2022-12-08T23:46:17.298Z,97543.69
2022-12-08T23:48:44.248Z,97539.63
2022-12-08T23:51:12.097Z,97541.25
2022-12-08T23:53:39.092Z,97542.22
2022-12-08T23:56:08.298Z,97538.03
2022-12-08T23:58:36.124Z,97553.28
